createdAt,value
2022-08-20T00:02:15.448Z,4.88
2022-08-20T00:04:44.013Z,5.03
2022-08-20T00:07:12.742Z,4.38
2022-08-20T00:09:41.863Z,5.13
2022-08-20T00:12:11.318Z,4.75
2022-08-20T00:14:41.450Z,4.28
2022-08-20T00:17:10.194Z,4.80
2022-08-20T00:19:38.421Z,4.93
2022-08-20T00:22:06.879Z,5.10
2022-08-20T00:24:35.205Z,4.20
2022-08-20T00:27:03.560Z,4.55
2022-08-20T00:29:32.583Z,5.80
2022-08-20T00:32:02.428Z,4.50
2022-08-20T00:34:30.803Z,5.20
2022-08-20T00:36:59.017Z,4.95
2022-08-20T00:39:27.457Z,5.13
2022-08-20T00:41:55.622Z,5.07
2022-08-20T00:44:24.317Z,4.78
2022-08-20T00:46:53.989Z,4.60
2022-08-20T00:49:26.746Z,5.25
2022-08-20T00:51:58.890Z,4.70
2022-08-20T00:54:31.358Z,5.00
2022-08-20T00:57:03.963Z,4.70
2022-08-20T00:59:34.730Z,5.05
2022-08-20T01:02:03.604Z,4.40
2022-08-20T01:04:35.547Z,4.53
2022-08-20T01:07:07.131Z,4.25
2022-08-20T01:09:58.155Z,4.45
2022-08-20T01:12:25.972Z,4.60
2022-08-20T01:14:55.239Z,4.90
2022-08-20T01:17:26.474Z,4.25
2022-08-20T01:19:59.610Z,3.70
2022-08-20T01:22:54.246Z,4.93
2022-08-20T01:25:29.940Z,5.00
2022-08-20T01:28:00.089Z,5.07
2022-08-20T01:30:30.077Z,4.60
2022-08-20T01:32:58.472Z,4.28
2022-08-20T01:35:29.375Z,4.72
2022-08-20T01:37:58.029Z,4.25
2022-08-20T01:40:40.090Z,4.80
2022-08-20T01:43:10.035Z,4.68
2022-08-20T01:45:40.080Z,4.95
2022-08-20T01:48:09.748Z,5.38
2022-08-20T01:50:43.013Z,4.85
2022-08-20T01:53:19.149Z,5.85
2022-08-20T01:55:47.662Z,5.72
2022-08-20T01:58:17.766Z,5.22
2022-08-20T02:00:46.075Z,5.57
2022-08-20T02:03:14.358Z,5.80
2022-08-20T02:05:42.746Z,5.55
2022-08-20T02:08:11.150Z,5.82
2022-08-20T02:10:39.385Z,6.40
2022-08-20T02:13:09.988Z,5.57
2022-08-20T02:15:43.221Z,5.47
2022-08-20T02:18:15.474Z,5.55
2022-08-20T02:20:45.535Z,5.82
2022-08-20T02:23:15.646Z,5.60
2022-08-20T02:25:47.763Z,5.35
2022-08-20T02:28:19.786Z,5.63
2022-08-20T02:30:52.363Z,6.40
2022-08-20T02:33:24.077Z,5.75
2022-08-20T02:35:57.167Z,6.18
2022-08-20T02:38:26.150Z,6.13
2022-08-20T02:40:54.460Z,6.20
2022-08-20T02:43:22.834Z,6.15
2022-08-20T02:45:52.399Z,6.15
2022-08-20T02:48:23.242Z,5.53
2022-08-20T02:50:55.273Z,5.78
2022-08-20T02:53:23.838Z,6.18
2022-08-20T02:55:52.483Z,5.82
2022-08-20T02:58:21.674Z,5.93
2022-08-20T03:00:51.911Z,5.95
2022-08-20T03:03:25.278Z,5.85
2022-08-20T03:05:56.346Z,6.43
2022-08-20T03:08:26.031Z,6.05
2022-08-20T03:10:54.227Z,6.78
2022-08-20T03:13:23.774Z,5.30
2022-08-20T03:15:58.836Z,5.57
2022-08-20T03:18:32.607Z,6.45
2022-08-20T03:21:01.612Z,6.13
2022-08-20T03:23:30.415Z,5.60
2022-08-20T03:25:58.615Z,6.70
2022-08-20T03:28:27.359Z,6.05
2022-08-20T03:30:58.032Z,6.50
2022-08-20T03:33:26.235Z,6.10
2022-08-20T03:35:54.945Z,5.90
2022-08-20T03:38:33.145Z,6.60
2022-08-20T03:41:04.965Z,6.65
2022-08-20T03:43:33.661Z,6.90
2022-08-20T03:46:05.219Z,6.60
2022-08-20T03:48:50.701Z,6.78
2022-08-20T03:51:28.670Z,7.00
2022-08-20T03:53:56.930Z,6.68
2022-08-20T03:56:25.122Z,7.82
2022-08-20T03:58:53.385Z,7.75
2022-08-20T04:01:44.314Z,7.35
2022-08-20T04:04:12.483Z,8.02
2022-08-20T04:06:41.341Z,7.45
2022-08-20T04:09:11.782Z,6.82
2022-08-20T04:11:40.609Z,7.38
2022-08-20T04:14:10.376Z,7.28
2022-08-20T04:16:41.584Z,8.00
2022-08-20T04:19:10.013Z,8.80
2022-08-20T04:21:38.388Z,8.55
2022-08-20T04:24:07.577Z,9.52
2022-08-20T04:26:50.411Z,8.38
2022-08-20T04:29:19.565Z,7.90
2022-08-20T04:31:49.260Z,8.90
2022-08-20T04:34:19.453Z,9.32
2022-08-20T04:36:49.095Z,8.88
2022-08-20T04:39:18.122Z,8.90
2022-08-20T04:41:45.333Z,8.23
2022-08-20T04:44:13.892Z,8.55
2022-08-20T04:46:42.480Z,9.30
2022-08-20T04:49:12.481Z,9.45
2022-08-20T04:51:40.901Z,8.70
2022-08-20T04:54:09.486Z,9.25
2022-08-20T04:56:39.775Z,8.88
2022-08-20T04:59:09.184Z,8.85
2022-08-20T05:01:37.449Z,9.27
2022-08-20T05:04:05.922Z,8.57
2022-08-20T05:06:35.715Z,8.48
2022-08-20T05:09:04.044Z,9.88
2022-08-20T05:11:36.471Z,9.73
2022-08-20T05:14:09.028Z,8.80
2022-08-20T05:16:39.315Z,8.15
2022-08-20T05:19:09.831Z,8.93
2022-08-20T05:21:40.372Z,8.68
2022-08-20T05:24:10.148Z,8.23
2022-08-20T05:26:38.555Z,8.25
2022-08-20T05:29:07.619Z,7.60
2022-08-20T05:31:37.568Z,8.63
2022-08-20T05:34:10.363Z,8.13
2022-08-20T05:39:11.340Z,8.40
2022-08-20T05:41:40.751Z,7.30
2022-08-20T05:44:13.835Z,8.13
2022-08-20T05:46:43.732Z,7.63
2022-08-20T05:49:15.215Z,6.90
2022-08-20T05:51:45.165Z,6.93
2022-08-20T05:54:14.556Z,6.65
2022-08-20T05:56:43.489Z,6.35
2022-08-20T05:59:12.620Z,5.32
2022-08-20T06:01:42.957Z,4.82
2022-08-20T06:04:28.203Z,5.20
2022-08-20T06:07:05.000Z,5.05
2022-08-20T06:09:34.202Z,4.93
2022-08-20T06:12:04.854Z,4.97
2022-08-20T06:14:33.488Z,4.80
2022-08-20T06:17:07.533Z,4.38
2022-08-20T06:19:36.514Z,5.05
2022-08-20T06:22:21.304Z,4.53
2022-08-20T06:24:55.166Z,5.05
2022-08-20T06:27:24.437Z,4.63
2022-08-20T06:29:53.425Z,4.30
2022-08-20T06:32:32.102Z,4.07
2022-08-20T06:35:03.229Z,4.50
2022-08-20T06:37:36.543Z,4.05
2022-08-20T06:40:07.576Z,4.07
2022-08-20T06:42:36.358Z,4.57
2022-08-20T06:45:05.883Z,4.50
2022-08-20T06:47:35.595Z,4.95
2022-08-20T06:50:03.737Z,4.50
2022-08-20T06:52:51.921Z,4.18
2022-08-20T06:55:22.274Z,4.10
2022-08-20T06:57:59.430Z,3.95
2022-08-20T07:00:29.739Z,4.22
2022-08-20T07:03:00.659Z,4.00
2022-08-20T07:05:29.036Z,3.95
2022-08-20T07:07:59.723Z,3.88
2022-08-20T07:10:30.296Z,4.03
2022-08-20T07:12:59.325Z,4.13
2022-08-20T07:15:28.531Z,3.33
2022-08-20T07:18:01.439Z,3.60
2022-08-20T07:23:00.690Z,3.92
2022-08-20T07:25:29.917Z,3.83
2022-08-20T07:28:03.170Z,3.63
2022-08-20T07:35:56.882Z,3.20
2022-08-20T07:38:28.516Z,3.78
2022-08-20T07:40:59.371Z,3.65
2022-08-20T07:43:28.365Z,3.92
2022-08-20T07:45:58.771Z,3.83
2022-08-20T07:48:32.337Z,3.55
2022-08-20T07:51:03.207Z,3.67
2022-08-20T07:53:35.866Z,3.65
2022-08-20T07:56:06.617Z,3.45
2022-08-20T07:58:37.259Z,3.47
2022-08-20T08:01:06.741Z,3.38
2022-08-20T08:03:39.913Z,3.40
2022-08-20T08:09:05.242Z,2.85
2022-08-20T08:11:35.964Z,2.92
2022-08-20T08:14:06.535Z,2.88
2022-08-20T08:16:35.269Z,3.13
2022-08-20T08:19:07.785Z,3.40
2022-08-20T08:21:36.314Z,2.88
2022-08-20T08:24:06.359Z,3.17
2022-08-20T08:26:34.882Z,3.40
2022-08-20T08:29:03.700Z,3.30
2022-08-20T08:31:31.833Z,2.90
2022-08-20T08:34:00.785Z,3.85
2022-08-20T08:36:29.046Z,3.28
2022-08-20T08:38:57.396Z,3.15
2022-08-20T08:41:32.272Z,3.50
2022-08-20T08:44:08.142Z,3.28
2022-08-20T08:46:41.164Z,3.45
2022-08-20T08:49:13.492Z,3.40
2022-08-20T08:51:46.536Z,3.37
2022-08-20T08:54:17.747Z,3.10
2022-08-20T08:56:50.376Z,3.33
2022-08-20T08:59:19.588Z,3.10
2022-08-20T09:01:55.133Z,2.90
2022-08-20T09:04:31.496Z,2.80
2022-08-20T09:07:00.483Z,2.97
2022-08-20T09:09:31.457Z,2.40
2022-08-20T09:12:06.756Z,2.25
2022-08-20T09:14:35.935Z,2.55
2022-08-20T09:17:04.756Z,2.17
2022-08-20T09:19:33.086Z,2.20
2022-08-20T09:22:07.776Z,2.30
2022-08-20T09:24:36.083Z,2.50
2022-08-20T09:27:06.189Z,2.20
2022-08-20T09:29:34.500Z,2.17
2022-08-20T09:32:06.988Z,2.00
2022-08-20T09:34:37.998Z,2.65
2022-08-20T09:37:06.395Z,2.30
2022-08-20T09:39:34.645Z,2.35
2022-08-20T09:42:12.051Z,2.60
2022-08-20T09:44:40.887Z,2.92
2022-08-20T09:47:09.352Z,2.85
2022-08-20T09:49:38.381Z,2.72
2022-08-20T09:52:09.732Z,2.53
2022-08-20T09:54:46.349Z,2.47
2022-08-20T09:57:17.649Z,2.20
2022-08-20T09:59:51.560Z,2.45
2022-08-20T10:02:19.733Z,2.42
2022-08-20T10:04:47.807Z,2.47
2022-08-20T10:07:16.444Z,2.50
2022-08-20T10:09:44.862Z,2.20
2022-08-20T10:12:13.637Z,2.40
2022-08-20T10:14:43.203Z,2.25
2022-08-20T10:17:11.735Z,1.90
2022-08-20T10:19:40.110Z,1.85
2022-08-20T10:22:08.255Z,2.03
2022-08-20T10:24:36.472Z,2.10
2022-08-20T10:27:05.217Z,1.60
2022-08-20T10:29:33.654Z,2.20
2022-08-20T10:32:13.591Z,1.70
2022-08-20T10:34:42.825Z,1.67
2022-08-20T10:37:15.360Z,1.95
2022-08-20T10:39:43.722Z,1.73
2022-08-20T10:42:12.154Z,1.88
2022-08-20T10:44:40.806Z,2.10
2022-08-20T10:47:18.428Z,2.60
2022-08-20T10:49:47.406Z,2.42
2022-08-20T10:52:15.957Z,1.48
2022-08-20T10:54:44.168Z,1.95
2022-08-20T10:57:16.675Z,1.80
2022-08-20T10:59:46.997Z,1.30
2022-08-20T11:02:17.057Z,1.50
2022-08-20T11:04:45.924Z,1.50
2022-08-20T11:07:16.479Z,1.40
2022-08-20T11:09:46.369Z,1.70
2022-08-20T11:12:14.925Z,1.60
2022-08-20T11:14:43.303Z,1.45
2022-08-20T11:17:11.911Z,1.98
2022-08-20T11:19:43.453Z,1.50
2022-08-20T11:22:12.699Z,2.10
2022-08-20T11:24:41.204Z,1.50
2022-08-20T11:27:10.587Z,1.60
2022-08-20T11:29:39.534Z,1.65
2022-08-20T11:32:10.518Z,1.40
2022-08-20T11:34:38.715Z,1.48
2022-08-20T11:37:08.352Z,1.83
2022-08-20T11:39:41.258Z,1.60
2022-08-20T11:42:10.423Z,1.70
2022-08-20T11:44:38.791Z,1.67
2022-08-20T11:47:08.491Z,1.85
2022-08-20T11:49:38.001Z,1.73
2022-08-20T11:52:08.020Z,1.70
2022-08-20T11:54:40.609Z,1.70
2022-08-20T11:57:09.161Z,1.67
2022-08-20T11:59:37.310Z,1.65
2022-08-20T12:02:10.228Z,1.40
2022-08-20T12:04:40.459Z,1.52
2022-08-20T12:07:15.872Z,1.60
2022-08-20T12:09:51.093Z,1.67
2022-08-20T12:12:22.568Z,1.60
2022-08-20T12:14:51.547Z,1.70
2022-08-20T12:17:23.893Z,1.73
2022-08-20T12:19:53.927Z,1.60
2022-08-20T12:22:25.284Z,2.03
2022-08-20T12:24:54.233Z,1.40
2022-08-20T12:27:24.517Z,1.88
2022-08-20T12:29:55.082Z,1.60
2022-08-20T12:32:25.108Z,1.50
2022-08-20T12:34:53.989Z,1.63
2022-08-20T12:37:25.816Z,2.10
2022-08-20T12:39:56.295Z,1.88
2022-08-20T12:42:25.133Z,1.42
2022-08-20T12:44:53.539Z,1.92
2022-08-20T12:47:24.569Z,1.60
2022-08-20T12:49:54.959Z,1.30
2022-08-20T12:52:26.229Z,1.60
2022-08-20T12:54:54.673Z,1.60
2022-08-20T12:57:28.422Z,1.77
2022-08-20T12:59:57.866Z,1.75
2022-08-20T13:02:27.423Z,1.70
2022-08-20T13:04:55.861Z,1.23
2022-08-20T13:07:28.176Z,1.50
2022-08-20T13:09:56.539Z,1.52
2022-08-20T13:12:24.841Z,1.42
2022-08-20T13:14:53.254Z,1.75
2022-08-20T13:17:33.647Z,1.40
2022-08-20T13:20:09.896Z,1.65
2022-08-20T13:22:39.766Z,1.50
2022-08-20T13:25:09.701Z,1.70
2022-08-20T13:27:38.941Z,1.50
2022-08-20T13:30:09.333Z,1.58
2022-08-20T13:32:37.876Z,1.70
2022-08-20T13:35:07.002Z,1.27
2022-08-20T13:37:35.858Z,1.60
2022-08-20T13:40:08.011Z,1.42
2022-08-20T13:42:37.020Z,1.70
2022-08-20T13:45:06.678Z,1.80
2022-08-20T13:47:37.073Z,1.95
2022-08-20T13:50:08.424Z,1.48
2022-08-20T13:52:37.021Z,1.90
2022-08-20T13:55:10.259Z,2.05
2022-08-20T14:00:11.549Z,1.90
2022-08-20T14:02:40.154Z,1.70
2022-08-20T14:05:09.628Z,1.65
2022-08-20T14:07:39.361Z,1.83
2022-08-20T14:10:13.794Z,1.70
2022-08-20T14:12:42.325Z,1.83
2022-08-20T14:15:11.888Z,1.88
2022-08-20T14:17:42.127Z,1.63
2022-08-20T14:20:13.992Z,1.70
2022-08-20T14:22:43.723Z,1.92
2022-08-20T14:25:16.839Z,2.05
2022-08-20T14:30:15.681Z,2.10
2022-08-20T14:32:44.228Z,1.50
2022-08-20T14:35:13.188Z,1.38
2022-08-20T14:37:43.956Z,1.27
2022-08-20T14:40:15.990Z,1.50
2022-08-20T14:42:49.022Z,1.42
2022-08-20T14:45:21.311Z,1.67
2022-08-20T14:47:53.769Z,1.40
2022-08-20T14:50:25.297Z,1.55
2022-08-20T14:52:53.759Z,1.60
2022-08-20T14:55:26.301Z,1.65
2022-08-20T14:57:55.082Z,1.85
2022-08-20T15:00:29.820Z,1.80
2022-08-20T15:02:58.848Z,1.75
2022-08-20T15:05:27.135Z,1.70
2022-08-20T15:07:59.494Z,1.80
2022-08-20T15:10:31.668Z,1.80
2022-08-20T15:13:00.489Z,1.90
2022-08-20T15:15:28.934Z,1.85
2022-08-20T15:18:00.254Z,1.80
2022-08-20T15:20:31.700Z,1.88
2022-08-20T15:23:00.827Z,2.00
2022-08-20T15:25:36.681Z,1.48
2022-08-20T15:28:07.185Z,1.75
2022-08-20T15:30:36.487Z,1.80
2022-08-20T15:33:04.759Z,1.63
2022-08-20T15:35:33.239Z,1.95
2022-08-20T15:38:03.007Z,2.05
2022-08-20T15:40:34.160Z,1.80
2022-08-20T15:43:05.032Z,1.65
2022-08-20T15:45:33.681Z,2.03
2022-08-20T15:48:09.422Z,1.90
2022-08-20T15:51:01.494Z,1.60
2022-08-20T15:53:34.696Z,1.73
2022-08-20T15:56:18.376Z,1.63
2022-08-20T15:59:06.064Z,1.80
2022-08-20T16:01:38.707Z,1.55
2022-08-20T16:04:34.803Z,1.95
2022-08-20T16:07:11.293Z,1.52
2022-08-20T16:09:52.554Z,1.70
2022-08-20T16:12:29.129Z,1.92
2022-08-20T16:15:03.491Z,1.90
2022-08-20T16:17:36.055Z,1.70
2022-08-20T16:20:10.000Z,2.05
2022-08-20T16:22:43.236Z,2.05
2022-08-20T16:27:51.321Z,1.80
2022-08-20T16:30:23.581Z,1.60
2022-08-20T16:32:58.556Z,1.58
2022-08-20T16:35:32.134Z,1.70
2022-08-20T16:38:07.831Z,1.92
2022-08-20T16:40:44.479Z,1.63
2022-08-20T16:43:24.662Z,1.92
2022-08-20T16:45:56.963Z,1.95
2022-08-20T16:48:35.011Z,1.77
2022-08-20T16:51:07.750Z,1.80
2022-08-20T16:53:36.726Z,2.10
2022-08-20T16:56:06.158Z,2.00
2022-08-20T16:58:35.883Z,1.80
2022-08-20T17:01:10.672Z,1.67
2022-08-20T17:03:40.896Z,1.63
2022-08-20T17:06:20.578Z,1.70
2022-08-20T17:08:51.746Z,1.90
2022-08-20T17:11:26.534Z,1.77
2022-08-20T17:14:07.967Z,1.95
2022-08-20T17:16:38.856Z,1.50
2022-08-20T17:19:18.643Z,1.60
2022-08-20T17:21:50.427Z,1.40
2022-08-20T17:24:24.880Z,1.92
2022-08-20T17:26:59.428Z,2.00
2022-08-20T17:29:31.063Z,1.80
2022-08-20T17:32:01.533Z,1.88
2022-08-20T17:34:32.807Z,2.20
2022-08-20T17:37:08.439Z,2.10
2022-08-20T17:39:36.978Z,1.48
2022-08-20T17:42:08.952Z,2.00
2022-08-20T17:44:43.029Z,1.60
2022-08-20T17:47:16.068Z,1.52
2022-08-20T17:49:57.457Z,1.60
2022-08-20T17:52:40.285Z,1.70
2022-08-20T17:55:09.710Z,1.85
2022-08-20T17:57:41.429Z,2.00
2022-08-20T18:00:15.612Z,1.80
2022-08-20T18:02:45.151Z,1.77
2022-08-20T18:05:19.034Z,1.92
2022-08-20T18:08:02.621Z,1.75
2022-08-20T18:13:05.665Z,1.83
2022-08-20T18:15:41.253Z,1.52
2022-08-20T18:18:22.974Z,1.60
2022-08-20T18:21:16.443Z,1.90
2022-08-20T18:23:48.061Z,2.25
2022-08-20T18:26:20.762Z,2.05
2022-08-20T18:28:54.946Z,1.80
2022-08-20T18:31:30.122Z,1.80
2022-08-20T18:33:58.803Z,1.92
2022-08-20T18:36:29.375Z,2.00
2022-08-20T18:39:02.672Z,2.33
2022-08-20T18:41:33.374Z,2.17
2022-08-20T18:44:10.899Z,1.90
2022-08-20T18:46:52.667Z,2.30
2022-08-20T18:49:29.157Z,2.15
2022-08-20T18:51:58.424Z,2.05
2022-08-20T18:54:30.837Z,2.25
2022-08-20T18:57:07.573Z,2.10
2022-08-20T18:59:44.158Z,2.00
2022-08-20T19:02:24.166Z,1.73
2022-08-20T19:05:02.013Z,1.88
2022-08-20T19:07:45.699Z,2.00
2022-08-20T19:10:39.639Z,1.90
2022-08-20T19:13:39.953Z,2.03
2022-08-20T19:16:12.483Z,1.85
2022-08-20T19:18:47.376Z,2.25
2022-08-20T19:21:17.856Z,2.10
2022-08-20T19:23:51.123Z,2.38
2022-08-20T19:26:25.018Z,2.30
2022-08-20T19:28:58.257Z,2.90
2022-08-20T19:31:28.775Z,2.67
2022-08-20T19:34:20.099Z,2.58
2022-08-20T19:36:56.129Z,2.73
2022-08-20T19:39:26.074Z,2.70
2022-08-20T19:41:58.422Z,2.65
2022-08-20T19:44:40.655Z,2.70
2022-08-20T19:47:19.886Z,2.30
2022-08-20T19:49:57.803Z,2.35
2022-08-20T19:52:41.621Z,2.50
2022-08-20T19:57:51.689Z,2.15
2022-08-20T20:00:20.703Z,2.10
2022-08-20T20:02:48.923Z,2.30
2022-08-20T20:05:18.921Z,1.58
2022-08-20T20:07:50.059Z,1.88
2022-08-20T20:10:32.713Z,1.92
2022-08-20T20:13:09.407Z,2.37
2022-08-20T20:15:38.795Z,2.20
2022-08-20T20:18:08.299Z,2.50
2022-08-20T20:20:50.287Z,2.22
2022-08-20T20:23:28.181Z,2.22
2022-08-20T20:26:18.429Z,2.05
2022-08-20T20:28:49.280Z,2.28
2022-08-20T20:31:23.705Z,2.00
2022-08-20T20:33:55.677Z,2.05
2022-08-20T20:36:36.404Z,2.35
2022-08-20T20:39:10.259Z,1.92
2022-08-20T20:41:54.264Z,2.05
2022-08-20T20:44:25.524Z,2.10
2022-08-20T20:46:58.235Z,2.28
2022-08-20T20:49:28.719Z,2.10
2022-08-20T20:52:02.817Z,2.25
2022-08-20T20:54:41.477Z,2.15
2022-08-20T20:57:32.645Z,2.47
2022-08-20T21:00:10.312Z,2.25
2022-08-20T21:02:39.075Z,2.40
2022-08-20T21:05:08.165Z,2.42
2022-08-20T21:07:50.106Z,2.20
2022-08-20T21:10:20.420Z,2.40
2022-08-20T21:12:52.668Z,2.10
2022-08-20T21:15:22.480Z,2.50
2022-08-20T21:17:51.624Z,2.17
2022-08-20T21:20:20.916Z,1.98
2022-08-20T21:22:50.555Z,2.17
2022-08-20T21:25:20.607Z,2.30
2022-08-20T21:27:52.259Z,2.40
2022-08-20T21:30:22.343Z,2.30
2022-08-20T21:32:51.108Z,2.53
2022-08-20T21:35:19.694Z,2.40
2022-08-20T21:37:48.318Z,2.00
2022-08-20T21:40:21.856Z,2.00
2022-08-20T21:42:51.166Z,2.10
2022-08-20T21:45:20.300Z,2.15
2022-08-20T21:47:49.046Z,1.77
2022-08-20T21:50:19.411Z,2.10
2022-08-20T21:52:55.435Z,1.95
2022-08-20T21:55:30.682Z,1.92
2022-08-20T21:57:59.254Z,2.08
2022-08-20T22:00:54.938Z,2.25
2022-08-20T22:03:25.570Z,2.05
2022-08-20T22:05:54.080Z,2.10
2022-08-20T22:08:28.549Z,2.20
2022-08-20T22:10:59.579Z,2.28
2022-08-20T22:13:31.728Z,1.98
2022-08-20T22:16:00.232Z,1.90
2022-08-20T22:18:28.758Z,2.05
2022-08-20T22:20:57.471Z,2.15
2022-08-20T22:23:26.314Z,2.05
2022-08-20T22:25:54.752Z,2.40
2022-08-20T22:28:24.615Z,2.00
2022-08-20T22:30:53.274Z,2.10
2022-08-20T22:33:24.025Z,1.90
2022-08-20T22:35:54.301Z,1.88
2022-08-20T22:38:23.343Z,1.98
2022-08-20T22:40:54.054Z,2.03
2022-08-20T22:43:24.354Z,1.77
2022-08-20T22:45:56.622Z,2.10
2022-08-20T22:48:24.919Z,1.90
2022-08-20T22:50:53.972Z,2.10
2022-08-20T22:53:23.790Z,1.98
2022-08-20T22:55:52.637Z,1.90
2022-08-20T22:58:30.911Z,1.85
2022-08-20T23:01:04.706Z,2.25
2022-08-20T23:03:39.281Z,2.22
2022-08-20T23:06:10.353Z,1.98
2022-08-20T23:08:39.162Z,1.73
2022-08-20T23:11:07.569Z,2.25
2022-08-20T23:13:36.064Z,2.28
2022-08-20T23:16:06.812Z,2.00
2022-08-20T23:18:35.071Z,2.10
2022-08-20T23:21:03.841Z,2.10
2022-08-20T23:23:32.402Z,2.35
2022-08-20T23:26:01.579Z,2.00
2022-08-20T23:28:29.804Z,2.28
2022-08-20T23:30:58.050Z,1.80
2022-08-20T23:33:27.690Z,2.10
2022-08-20T23:35:56.329Z,2.00
2022-08-20T23:38:24.793Z,1.70
2022-08-20T23:40:52.937Z,2.00
2022-08-20T23:43:21.213Z,2.03
2022-08-20T23:45:49.459Z,2.30
2022-08-20T23:48:17.605Z,2.28
2022-08-20T23:50:47.261Z,1.92
2022-08-20T23:53:15.468Z,2.20
2022-08-20T23:55:43.878Z,2.30
2022-08-20T23:58:12.278Z,2.10
